createdAt,value
2019-01-25T00:00:30.840Z,127.10
2019-01-25T00:03:09.874Z,117.03
2019-01-25T00:05:43.029Z,116.47
2019-01-25T00:08:16.715Z,128.50
2019-01-25T00:10:48.733Z,117.87
2019-01-25T00:13:22.230Z,124.30
2019-01-25T00:15:55.374Z,136.30
2019-01-25T00:18:26.628Z,116.37
2019-01-25T00:20:58.366Z,115.90
2019-01-25T00:23:29.636Z,135.33
2019-01-25T00:26:01.303Z,130.80
2019-01-25T00:28:34.419Z,116.73
2019-01-25T00:31:07.528Z,130.67
2019-01-25T00:33:40.414Z,112.50
2019-01-25T00:36:14.597Z,120.17
2019-01-25T00:38:46.481Z,135.57
2019-01-25T00:41:19.345Z,119.80
2019-01-25T00:43:52.992Z,115.77
2019-01-25T00:46:24.609Z,122.00
2019-01-25T00:48:56.631Z,120.07
2019-01-25T00:51:28.518Z,130.72
2019-01-25T00:54:00.518Z,114.30
2019-01-25T00:56:31.798Z,123.17
2019-01-25T00:59:04.527Z,119.50
2019-01-25T01:01:37.681Z,121.85
2019-01-25T01:04:10.295Z,110.53
2019-01-25T01:06:42.561Z,131.27
2019-01-25T01:09:14.759Z,140.27
2019-01-25T01:11:46.580Z,116.23
2019-01-25T01:14:17.860Z,119.93
2019-01-25T01:16:51.525Z,139.90
2019-01-25T01:19:22.890Z,141.92
2019-01-25T01:21:56.694Z,117.27
2019-01-25T01:24:30.718Z,129.57
2019-01-25T01:27:04.621Z,111.50
2019-01-25T01:29:40.200Z,136.50
2019-01-25T01:32:12.513Z,135.63
2019-01-25T01:34:43.806Z,142.10
2019-01-25T01:37:17.787Z,120.90
2019-01-25T01:39:52.714Z,119.30
2019-01-25T01:42:25.751Z,124.53
2019-01-25T01:44:57.890Z,124.60
2019-01-25T01:47:30.675Z,135.27
2019-01-25T01:50:04.482Z,118.13
2019-01-25T01:52:35.748Z,142.70
2019-01-25T01:55:10.251Z,115.93
2019-01-25T01:57:44.083Z,135.90
2019-01-25T02:00:22.766Z,136.25
2019-01-25T02:02:54.784Z,128.62
2019-01-25T02:05:28.847Z,124.83
2019-01-25T02:08:02.831Z,124.67
2019-01-25T02:10:34.794Z,125.07
2019-01-25T02:13:06.879Z,119.67
2019-01-25T02:15:38.782Z,132.27
2019-01-25T02:18:10.138Z,119.70
2019-01-25T02:20:42.898Z,127.60
2019-01-25T02:23:16.971Z,122.92
2019-01-25T02:25:48.272Z,110.67
2019-01-25T02:28:22.384Z,129.70
2019-01-25T02:30:55.951Z,124.03
2019-01-25T02:33:29.954Z,126.60
2019-01-25T02:36:03.952Z,133.30
2019-01-25T02:38:37.875Z,109.60
2019-01-25T02:41:09.443Z,135.05
2019-01-25T02:43:43.017Z,125.60
2019-01-25T02:46:17.141Z,133.63
2019-01-25T02:48:51.141Z,132.87
2019-01-25T02:51:25.158Z,120.80
2019-01-25T02:53:57.127Z,125.70
2019-01-25T02:56:30.103Z,135.27
2019-01-25T02:59:01.363Z,126.83
2019-01-25T03:01:39.680Z,125.18
2019-01-25T03:04:11.091Z,127.60
2019-01-25T03:06:43.197Z,126.50
2019-01-25T03:09:17.046Z,108.83
2019-01-25T03:11:48.304Z,128.53
2019-01-25T03:14:21.449Z,120.53
2019-01-25T03:16:52.881Z,110.50
2019-01-25T03:19:24.218Z,123.20
2019-01-25T03:21:58.131Z,115.53
2019-01-25T03:24:31.429Z,113.03
2019-01-25T03:27:05.541Z,130.43
2019-01-25T03:29:39.249Z,116.30
2019-01-25T03:32:10.707Z,111.23
2019-01-25T03:34:43.264Z,117.87
2019-01-25T03:37:15.644Z,111.53
2019-01-25T03:39:50.244Z,121.50
2019-01-25T03:42:23.452Z,113.57
2019-01-25T03:44:58.782Z,112.07
2019-01-25T03:47:31.447Z,129.63
2019-01-25T03:50:09.802Z,127.37
2019-01-25T03:52:42.199Z,126.87
2019-01-25T03:55:14.038Z,111.63
2019-01-25T03:57:47.515Z,114.40
2019-01-25T04:00:21.112Z,120.42
2019-01-25T04:02:55.485Z,118.75
2019-01-25T04:05:27.143Z,110.57
2019-01-25T04:08:00.518Z,129.10
2019-01-25T04:10:32.354Z,124.33
2019-01-25T04:13:05.888Z,137.60
2019-01-25T04:15:39.334Z,121.80
2019-01-25T04:18:10.676Z,115.17
2019-01-25T04:20:44.502Z,120.57
2019-01-25T04:23:16.285Z,123.20
2019-01-25T04:25:49.471Z,124.43
2019-01-25T04:28:20.728Z,124.23
2019-01-25T04:30:54.411Z,119.85
2019-01-25T04:33:30.048Z,130.67
2019-01-25T04:36:02.493Z,124.33
2019-01-25T04:38:34.488Z,120.30
2019-01-25T04:41:11.782Z,121.67
2019-01-25T04:43:41.976Z,129.82
2019-01-25T04:46:15.632Z,112.87
2019-01-25T04:48:47.160Z,124.00
2019-01-25T04:51:18.810Z,115.73
2019-01-25T04:53:53.076Z,133.70
2019-01-25T04:56:25.492Z,133.70
2019-01-25T04:58:59.467Z,112.90
2019-01-25T05:01:30.738Z,127.50
2019-01-25T05:04:02.028Z,124.00
2019-01-25T05:06:35.403Z,129.77
2019-01-25T05:09:09.216Z,132.67
2019-01-25T05:11:40.680Z,114.20
2019-01-25T05:14:13.828Z,122.63
2019-01-25T05:16:45.622Z,126.30
2019-01-25T05:19:19.747Z,141.70
2019-01-25T05:21:54.798Z,128.47
2019-01-25T05:24:27.409Z,127.13
2019-01-25T05:26:59.380Z,149.20
2019-01-25T05:29:53.301Z,123.37
2019-01-25T05:32:24.757Z,130.07
2019-01-25T05:34:58.840Z,132.43
2019-01-25T05:37:31.153Z,136.00
2019-01-25T05:40:05.132Z,125.10
2019-01-25T05:42:37.809Z,125.67
2019-01-25T05:45:12.346Z,132.43
2019-01-25T05:47:45.838Z,137.07
2019-01-25T05:50:19.847Z,131.60
2019-01-25T05:52:55.580Z,133.40
2019-01-25T05:55:27.783Z,126.33
2019-01-25T05:58:04.401Z,129.63
2019-01-25T06:00:39.577Z,113.83
2019-01-25T06:03:15.495Z,127.17
2019-01-25T06:05:46.826Z,130.43
2019-01-25T06:08:29.795Z,121.45
2019-01-25T06:11:03.340Z,119.57
2019-01-25T06:13:34.922Z,129.20
2019-01-25T06:16:08.938Z,128.37
2019-01-25T06:18:42.969Z,127.17
2019-01-25T06:21:17.024Z,134.93
2019-01-25T06:23:55.347Z,119.23
2019-01-25T06:26:28.084Z,139.23
2019-01-25T06:29:01.983Z,139.13
2019-01-25T06:31:36.183Z,130.40
2019-01-25T06:34:09.994Z,132.13
2019-01-25T06:36:41.345Z,134.52
2019-01-25T06:39:14.907Z,124.37
2019-01-25T06:41:48.966Z,133.50
2019-01-25T06:44:20.283Z,121.13
2019-01-25T06:46:54.175Z,145.47
2019-01-25T06:49:28.119Z,123.20
2019-01-25T06:52:02.143Z,143.77
2019-01-25T06:54:33.395Z,123.77
2019-01-25T06:57:19.118Z,131.40
2019-01-25T06:59:50.388Z,138.32
2019-01-25T07:02:29.446Z,136.12
2019-01-25T07:05:01.315Z,128.40
2019-01-25T07:07:38.469Z,137.22
2019-01-25T07:10:13.742Z,133.73
2019-01-25T07:12:46.177Z,126.18
2019-01-25T07:15:22.826Z,135.03
2019-01-25T07:17:54.269Z,134.00
2019-01-25T07:20:28.368Z,117.70
2019-01-25T07:22:59.723Z,130.47
2019-01-25T07:25:33.314Z,134.23
2019-01-25T07:28:07.317Z,130.43
2019-01-25T07:30:41.329Z,139.57
2019-01-25T07:33:14.415Z,125.80
2019-01-25T07:35:46.741Z,133.10
2019-01-25T07:38:18.349Z,128.93
2019-01-25T07:40:50.459Z,121.87
2019-01-25T07:43:21.922Z,117.90
2019-01-25T07:45:58.866Z,138.07
2019-01-25T07:48:33.169Z,133.37
2019-01-25T07:51:06.429Z,127.63
2019-01-25T07:53:39.719Z,114.43
2019-01-25T07:56:11.578Z,118.67
2019-01-25T07:58:42.951Z,126.13
2019-01-25T08:01:14.281Z,116.47
2019-01-25T08:03:47.518Z,104.50
2019-01-25T08:06:23.128Z,122.97
2019-01-25T08:08:55.597Z,124.67
2019-01-25T08:11:29.484Z,119.28
2019-01-25T08:14:03.179Z,121.50
2019-01-25T08:16:34.486Z,122.47
2019-01-25T08:19:06.071Z,130.33
2019-01-25T08:21:39.707Z,129.30
2019-01-25T08:24:11.054Z,119.47
2019-01-25T08:26:44.714Z,118.80
2019-01-25T08:29:17.500Z,110.20
2019-01-25T08:31:49.392Z,128.03
2019-01-25T08:34:23.455Z,128.57
2019-01-25T08:36:56.747Z,126.10
2019-01-25T08:39:28.041Z,116.05
2019-01-25T08:41:59.294Z,123.33
2019-01-25T08:44:32.537Z,116.17
2019-01-25T08:47:06.507Z,117.10
2019-01-25T08:49:40.881Z,119.80
2019-01-25T08:52:13.630Z,118.67
2019-01-25T08:54:45.612Z,120.22
2019-01-25T08:57:19.672Z,113.70
2019-01-25T08:59:51.003Z,113.95
2019-01-25T09:02:24.587Z,115.03
2019-01-25T09:04:57.844Z,107.40
2019-01-25T09:07:29.831Z,122.63
2019-01-25T09:10:04.937Z,124.33
2019-01-25T09:12:36.679Z,103.73
2019-01-25T09:15:15.300Z,109.37
2019-01-25T09:17:47.680Z,107.30
2019-01-25T09:20:22.198Z,120.43
2019-01-25T09:22:55.892Z,105.83
2019-01-25T09:25:28.865Z,107.50
2019-01-25T09:28:02.894Z,122.83
2019-01-25T09:30:34.861Z,109.67
2019-01-25T09:33:09.040Z,113.20
2019-01-25T09:35:42.827Z,109.63
2019-01-25T09:38:18.392Z,115.20
2019-01-25T09:40:50.852Z,114.47
2019-01-25T09:43:22.110Z,112.83
2019-01-25T09:45:57.499Z,101.80
2019-01-25T09:48:29.824Z,113.23
2019-01-25T09:51:01.215Z,107.47
2019-01-25T09:53:35.117Z,128.77
2019-01-25T09:56:08.021Z,106.67
2019-01-25T09:58:44.457Z,107.83
2019-01-25T10:01:18.039Z,113.32
2019-01-25T10:03:50.983Z,104.90
2019-01-25T10:06:26.522Z,112.73
2019-01-25T10:08:58.994Z,109.20
2019-01-25T10:11:32.727Z,115.07
2019-01-25T10:14:05.614Z,116.03
2019-01-25T10:16:39.006Z,100.30
2019-01-25T10:19:10.914Z,98.13
2019-01-25T10:21:45.051Z,106.97
2019-01-25T10:24:18.209Z,112.50
2019-01-25T10:26:49.913Z,102.65
2019-01-25T10:29:23.215Z,109.87
2019-01-25T10:31:55.076Z,107.10
2019-01-25T10:34:26.413Z,98.57
2019-01-25T10:36:57.971Z,106.20
2019-01-25T10:39:31.203Z,102.47
2019-01-25T10:42:05.496Z,100.53
2019-01-25T10:44:38.211Z,97.50
2019-01-25T10:47:11.318Z,106.20
2019-01-25T10:49:45.157Z,100.43
2019-01-25T10:52:17.234Z,98.13
2019-01-25T10:54:49.139Z,102.13
2019-01-25T10:57:20.397Z,104.90
2019-01-25T10:59:54.274Z,99.55
2019-01-25T11:02:27.263Z,121.65
2019-01-25T11:04:59.268Z,97.40
2019-01-25T11:07:33.250Z,94.60
2019-01-25T11:10:07.508Z,98.00
2019-01-25T11:12:40.909Z,102.00
2019-01-25T11:15:15.037Z,99.40
2019-01-25T11:17:48.557Z,105.23
2019-01-25T11:20:21.921Z,109.20
2019-01-25T11:22:54.272Z,91.73
2019-01-25T11:25:33.001Z,99.62
2019-01-25T11:28:05.928Z,91.73
2019-01-25T11:30:38.311Z,95.27
2019-01-25T11:33:10.920Z,103.67
2019-01-25T11:35:43.312Z,94.80
2019-01-25T11:38:18.927Z,96.90
2019-01-25T11:40:51.370Z,97.70
2019-01-25T11:43:22.659Z,124.87
2019-01-25T11:45:54.462Z,88.73
2019-01-25T11:48:27.540Z,94.87
2019-01-25T11:50:59.494Z,87.30
2019-01-25T11:53:32.525Z,89.23
2019-01-25T11:56:08.040Z,84.20
2019-01-25T11:58:39.392Z,87.97
2019-01-25T12:01:10.862Z,89.47
2019-01-25T12:03:42.544Z,89.37
2019-01-25T12:06:14.491Z,81.43
2019-01-25T12:08:47.384Z,85.60
2019-01-25T12:11:18.645Z,86.47
2019-01-25T12:13:49.913Z,78.67
2019-01-25T12:16:23.528Z,79.13
2019-01-25T12:18:57.529Z,82.30
2019-01-25T12:21:33.075Z,78.77
2019-01-25T12:24:06.207Z,83.33
2019-01-25T12:26:37.468Z,74.90
2019-01-25T12:29:09.798Z,73.80
2019-01-25T12:31:41.136Z,82.30
2019-01-25T12:34:12.458Z,78.52
2019-01-25T12:36:43.927Z,83.80
2019-01-25T12:39:16.800Z,77.10
2019-01-25T12:41:50.742Z,95.37
2019-01-25T12:44:24.771Z,83.97
2019-01-25T12:46:58.843Z,81.00
2019-01-25T12:49:31.732Z,75.37
2019-01-25T12:52:08.410Z,84.50
2019-01-25T12:54:40.989Z,83.50
2019-01-25T12:57:14.850Z,82.80
2019-01-25T12:59:48.843Z,73.62
2019-01-25T13:02:20.857Z,64.40
2019-01-25T13:04:53.664Z,74.72
2019-01-25T13:07:24.939Z,70.00
2019-01-25T13:09:58.736Z,70.70
2019-01-25T13:12:32.745Z,79.87
2019-01-25T13:15:07.505Z,67.83
2019-01-25T13:17:40.750Z,63.27
2019-01-25T13:20:18.353Z,72.17
2019-01-25T13:22:51.798Z,67.90
2019-01-25T13:25:27.430Z,69.07
2019-01-25T13:27:59.879Z,66.77
2019-01-25T13:30:33.493Z,73.27
2019-01-25T13:33:05.366Z,75.22
2019-01-25T13:35:37.879Z,67.40
2019-01-25T13:38:10.964Z,69.10
2019-01-25T13:40:42.885Z,72.17
2019-01-25T13:43:14.949Z,68.53
2019-01-25T13:45:47.915Z,73.47
2019-01-25T13:48:19.998Z,82.88
2019-01-25T13:50:52.856Z,66.70
2019-01-25T13:53:28.400Z,69.03
2019-01-25T13:56:01.139Z,77.70
2019-01-25T13:58:36.567Z,67.83
2019-01-25T14:01:08.998Z,57.80
2019-01-25T14:03:42.908Z,67.70
2019-01-25T14:06:16.977Z,59.97
2019-01-25T14:08:48.496Z,71.50
2019-01-25T14:11:19.792Z,64.82
2019-01-25T14:13:53.037Z,57.70
2019-01-25T14:16:25.417Z,68.65
2019-01-25T14:18:58.149Z,63.37
2019-01-25T14:21:32.200Z,68.93
2019-01-25T14:24:06.289Z,64.30
2019-01-25T14:26:38.042Z,70.80
2019-01-25T14:29:11.013Z,70.03
2019-01-25T14:31:45.072Z,70.47
2019-01-25T14:34:19.050Z,77.90
2019-01-25T14:36:53.092Z,69.20
2019-01-25T14:39:26.117Z,68.27
2019-01-25T14:41:59.262Z,71.43
2019-01-25T14:44:31.933Z,77.67
2019-01-25T14:47:03.223Z,75.73
2019-01-25T14:49:37.191Z,71.95
2019-01-25T14:52:10.966Z,69.10
2019-01-25T14:54:44.312Z,69.63
2019-01-25T14:57:17.298Z,76.13
2019-01-25T14:59:49.229Z,76.75
2019-01-25T15:02:23.226Z,83.60
2019-01-25T15:04:54.507Z,71.43
2019-01-25T15:07:26.202Z,79.50
2019-01-25T15:09:59.303Z,78.80
2019-01-25T15:12:30.699Z,78.53
2019-01-25T15:15:04.981Z,78.73
2019-01-25T15:17:38.289Z,80.93
2019-01-25T15:20:14.542Z,87.23
2019-01-25T15:22:46.400Z,85.17
2019-01-25T15:25:17.666Z,79.10
2019-01-25T15:27:51.245Z,88.40
2019-01-25T15:30:27.510Z,114.87
2019-01-25T15:32:59.359Z,95.90
2019-01-25T15:35:33.390Z,87.23
2019-01-25T15:38:07.393Z,67.87
2019-01-25T15:40:41.503Z,107.30
2019-01-25T15:43:14.696Z,78.83
2019-01-25T15:45:46.324Z,91.33
2019-01-25T15:48:20.482Z,82.00
2019-01-25T15:50:55.999Z,137.87
2019-01-25T15:53:28.233Z,84.15
2019-01-25T15:56:01.484Z,73.53
2019-01-25T15:58:33.947Z,113.67
2019-01-25T16:01:06.781Z,124.05
2019-01-25T16:03:40.775Z,84.50
2019-01-25T16:06:13.154Z,79.80
2019-01-25T16:08:45.765Z,96.13
2019-01-25T16:11:18.522Z,108.40
2019-01-25T16:13:50.692Z,94.13
2019-01-25T16:16:22.155Z,84.50
2019-01-25T16:18:55.548Z,113.63
2019-01-25T16:21:29.797Z,212.63
2019-01-25T16:24:03.651Z,234.07
2019-01-25T16:26:35.475Z,93.50
2019-01-25T16:29:08.856Z,87.47
2019-01-25T16:31:42.571Z,123.58
2019-01-25T16:34:16.576Z,78.47
2019-01-25T16:36:50.922Z,88.60
2019-01-25T16:39:24.039Z,80.15
2019-01-25T16:41:57.863Z,77.80
2019-01-25T16:44:31.723Z,106.35
2019-01-25T16:47:03.119Z,101.53
2019-01-25T16:49:36.744Z,88.50
2019-01-25T16:52:08.029Z,88.50
2019-01-25T16:54:44.293Z,93.73
2019-01-25T16:57:17.851Z,98.75
2019-01-25T16:59:49.288Z,87.55
2019-01-25T17:02:20.699Z,98.62
2019-01-25T17:04:53.748Z,97.13
2019-01-25T17:07:26.727Z,103.12
2019-01-25T17:09:59.010Z,96.73
2019-01-25T17:12:33.024Z,99.07
2019-01-25T17:15:05.150Z,90.07
2019-01-25T17:17:37.908Z,95.57
2019-01-25T17:20:17.253Z,98.77
2019-01-25T17:22:44.994Z,89.13
2019-01-25T17:25:16.754Z,100.67
2019-01-25T17:27:48.472Z,93.60
2019-01-25T17:30:23.367Z,92.77
2019-01-25T17:32:55.815Z,101.80
2019-01-25T17:35:29.385Z,97.25
2019-01-25T17:38:04.052Z,95.83
2019-01-25T17:40:46.472Z,92.82
2019-01-25T17:43:15.008Z,97.40
2019-01-25T17:45:47.108Z,99.93
2019-01-25T17:48:21.084Z,89.70
2019-01-25T17:50:56.670Z,91.43
2019-01-25T17:53:29.021Z,95.10
2019-01-25T17:56:04.740Z,88.00
2019-01-25T17:58:39.421Z,89.50
2019-01-25T18:01:11.425Z,92.97
2019-01-25T18:03:42.769Z,89.40
2019-01-25T18:06:15.034Z,88.47
2019-01-25T18:08:47.100Z,96.00
2019-01-25T18:11:22.669Z,90.30
2019-01-25T18:13:55.560Z,96.07
2019-01-25T18:16:30.888Z,89.17
2019-01-25T18:19:02.198Z,82.30
2019-01-25T18:21:36.361Z,83.97
2019-01-25T18:24:07.761Z,83.27
2019-01-25T18:26:41.151Z,94.13
2019-01-25T18:29:30.907Z,85.40
2019-01-25T18:32:05.457Z,82.60
2019-01-25T18:34:38.234Z,83.35
2019-01-25T18:37:10.640Z,117.83
2019-01-25T18:39:42.327Z,104.15
2019-01-25T18:42:13.781Z,93.78
2019-01-25T18:44:45.050Z,83.47
2019-01-25T18:47:18.413Z,90.53
2019-01-25T18:49:50.100Z,83.47
2019-01-25T18:52:23.325Z,74.22
2019-01-25T18:54:57.439Z,76.00
2019-01-25T18:57:31.423Z,78.33
2019-01-25T19:00:09.423Z,69.47
2019-01-25T19:02:43.302Z,75.80
2019-01-25T19:05:15.112Z,64.50
2019-01-25T19:07:48.254Z,68.15
2019-01-25T19:10:23.762Z,65.80
2019-01-25T19:12:55.007Z,68.73
2019-01-25T19:15:30.660Z,62.00
2019-01-25T19:18:02.463Z,56.33
2019-01-25T19:20:36.492Z,55.87
2019-01-25T19:23:07.881Z,66.37
2019-01-25T19:25:41.484Z,59.30
2019-01-25T19:28:14.399Z,61.87
2019-01-25T19:30:47.007Z,57.93
2019-01-25T19:33:20.553Z,58.52
2019-01-25T19:35:54.398Z,64.13
2019-01-25T19:38:25.665Z,58.33
2019-01-25T19:40:59.543Z,62.10
2019-01-25T19:43:33.474Z,60.33
2019-01-25T19:46:07.366Z,56.77
2019-01-25T19:48:38.669Z,68.50
2019-01-25T19:51:13.249Z,58.27
2019-01-25T19:53:45.375Z,56.97
2019-01-25T19:56:17.714Z,56.73
2019-01-25T19:58:51.352Z,52.20
2019-01-25T20:01:26.084Z,64.27
2019-01-25T20:03:57.646Z,61.40
2019-01-25T20:06:29.746Z,55.20
2019-01-25T20:09:01.154Z,61.02
2019-01-25T20:11:32.669Z,58.70
2019-01-25T20:14:06.140Z,60.37
2019-01-25T20:16:39.811Z,61.73
2019-01-25T20:19:11.688Z,55.60
2019-01-25T20:21:45.924Z,65.60
2019-01-25T20:24:17.835Z,64.27
2019-01-25T20:26:49.857Z,59.93
2019-01-25T20:29:23.815Z,53.35
2019-01-25T20:31:55.074Z,56.55
2019-01-25T20:34:30.117Z,58.87
2019-01-25T20:37:02.806Z,63.77
2019-01-25T20:39:36.949Z,61.40
2019-01-25T20:42:08.347Z,49.73
2019-01-25T20:44:41.697Z,64.10
2019-01-25T20:47:15.250Z,65.00
2019-01-25T20:49:46.575Z,62.07
2019-01-25T20:52:17.837Z,60.07
2019-01-25T20:54:51.911Z,64.70
2019-01-25T20:57:26.215Z,65.07
2019-01-25T21:00:00.311Z,66.95
2019-01-25T21:02:32.381Z,64.37
2019-01-25T21:05:05.319Z,56.90
2019-01-25T21:07:37.847Z,50.83
2019-01-25T21:10:12.590Z,53.03
2019-01-25T21:12:46.588Z,52.13
2019-01-25T21:15:19.827Z,62.77
2019-01-25T21:17:54.027Z,50.87
2019-01-25T21:20:33.784Z,55.57
2019-01-25T21:23:08.722Z,56.03
2019-01-25T21:25:42.020Z,55.63
2019-01-25T21:28:15.478Z,48.30
2019-01-25T21:30:47.410Z,56.00
2019-01-25T21:33:22.412Z,49.45
2019-01-25T21:35:55.518Z,56.60
2019-01-25T21:38:31.800Z,52.20
2019-01-25T21:41:03.870Z,49.47
2019-01-25T21:43:37.029Z,54.07
2019-01-25T21:46:11.404Z,41.67
2019-01-25T21:48:44.971Z,45.83
2019-01-25T21:51:18.029Z,48.55
2019-01-25T21:53:52.310Z,51.37
2019-01-25T21:56:25.674Z,52.17
2019-01-25T21:58:57.314Z,57.73
2019-01-25T22:01:28.789Z,57.33
2019-01-25T22:04:02.156Z,47.30
2019-01-25T22:06:36.251Z,50.90
2019-01-25T22:09:11.582Z,46.97
2019-01-25T22:11:44.312Z,51.30
2019-01-25T22:14:17.304Z,52.33
2019-01-25T22:16:49.133Z,49.97
2019-01-25T22:19:20.850Z,50.80
2019-01-25T22:21:52.208Z,50.40
2019-01-25T22:24:25.158Z,50.03
2019-01-25T22:26:59.351Z,55.73
2019-01-25T22:29:33.284Z,59.00
2019-01-25T22:32:05.264Z,56.08
2019-01-25T22:34:38.305Z,50.92
2019-01-25T22:37:12.390Z,57.05
2019-01-25T22:39:43.742Z,52.13
2019-01-25T22:42:17.193Z,55.60
2019-01-25T22:44:49.437Z,62.40
2019-01-25T22:47:22.313Z,55.97
2019-01-25T22:49:56.240Z,57.23
2019-01-25T22:52:28.550Z,50.13
2019-01-25T22:55:01.614Z,54.20
2019-01-25T22:57:35.255Z,64.53
2019-01-25T23:00:15.408Z,52.40
2019-01-25T23:02:49.375Z,61.18
2019-01-25T23:05:55.963Z,55.13
2019-01-25T23:08:27.432Z,56.63
2019-01-25T23:11:01.509Z,55.17
2019-01-25T23:13:35.660Z,56.55
2019-01-25T23:16:09.431Z,53.07
2019-01-25T23:18:43.344Z,56.10
2019-01-25T23:21:14.678Z,57.17
2019-01-25T23:23:48.510Z,58.27
2019-01-25T23:26:22.478Z,56.05
2019-01-25T23:28:53.731Z,63.07
2019-01-25T23:31:27.552Z,62.50
2019-01-25T23:34:00.608Z,55.83
2019-01-25T23:36:33.430Z,66.23
2019-01-25T23:39:09.843Z,62.67
2019-01-25T23:41:43.618Z,56.17
2019-01-25T23:44:15.574Z,51.83
2019-01-25T23:46:46.891Z,50.30
2019-01-25T23:49:18.638Z,55.67
2019-01-25T23:51:52.743Z,60.40
2019-01-25T23:54:24.914Z,59.93
2019-01-25T23:56:58.054Z,63.03
2019-01-25T23:59:29.323Z,51.73
